Portada
Imágenes satélite Pronóstico 15 díasClimaPredicción Marítima Ciclones Rayo AeropuertosFAQ Noticias Acerca
El tiempo : Europa África América del Norte América del Sur Asia Australia-Oceanía Otros
Idiomas Contacto

Madrid, España

Barajas

latitud: 40-27N, longitud: 003-33W, altitud: 609 m


METAR: LEMD 211000Z 31003KT CAVOK 10/07 Q1020 NOSIG
TAF: LEMD 210500Z 2106/2212 01006KT CAVOK TX20/2115Z TN06/2106Z PROB30 TEMPO 2106/2110 BKN010

Hora: 11:12 (10:12 UTC)

Observación

El informe se hizo hace 12 minutos, a las 10:00 UTC
Viento 3 kt del noroeste
Temperatura 10°C
Humedad 82%
Presión 1020 hPa
Visibilidad 10 km o más
sin nubes por debajo de 1500 m y sin presencia de cumulonimbus.

Cambiar las unidades

Pronóstico

El informe se hizo hace 5 horas y 12 minutos, a las 05:00 UTC
Pronóstico válido del 21 a las 06 UTC al 22 a las 12 UTC
Viento 6 kt del norte
Visibilidad 10 km o más
sin nubes por debajo de 1500 m y sin presencia de cumulonimbus.
Probabilidad 30% :
Temporalmente
del 21 a las 06 UTC al 21 a las 10 UTC
Cielo nuboso a una altura de 1000 ft
La información que se ofrece en estas páginas está sujeta a una cláusula de exención de responsabilidad
El tiempo : Europa África América del Norte América del Sur Asia Australia-Oceanía Otros
Imágenes satélite Pronóstico 15 díasClimaPredicción Marítima Ciclones Rayo AeropuertosFAQ Idiomas Contacto Noticias Acerca